Time;durP1;ratioP1;P1;durP2;ratioP2;P2;SDS_P1;SDS_P2;PMS_P1;PMS_P2;Temp;Humidity;BMP_temperature;BMP_pressure;BME280_temperature;BME280_humidity;BME280_pressure;Samples;Min_cycle;Max_cycle;Signal;HPM_P1;HPM_P2
2022/12/19 00:00:45;;;;;;;33.70;16.23;;;-2.90;99.90;;;;;;5056463;28;20462;-70
2022/12/19 00:03:14;;;;;;;28.07;15.87;;;-2.90;99.90;;;;;;5056404;28;20469;-71
2022/12/19 00:05:42;;;;;;;26.80;15.90;;;-2.90;99.90;;;;;;5056605;28;20534;-69
2022/12/19 00:08:14;;;;;;;25.77;15.70;;;-2.90;99.90;;;;;;5056578;28;20830;-69
2022/12/19 00:10:41;;;;;;;30.60;15.90;;;-2.90;99.90;;;;;;5056423;28;20454;-69
2022/12/19 00:13:08;;;;;;;22.53;14.37;;;-2.90;99.90;;;;;;5056055;28;20466;-70
2022/12/19 00:15:35;;;;;;;33.17;17.17;;;-2.90;99.90;;;;;;5058061;28;20575;-71
2022/12/19 00:18:02;;;;;;;30.80;17.07;;;-2.90;99.90;;;;;;5060562;28;20455;-70
2022/12/19 00:20:30;;;;;;;28.93;17.27;;;-2.80;99.90;;;;;;5059394;28;20451;-71
2022/12/19 00:22:58;;;;;;;25.63;15.00;;;-2.90;99.90;;;;;;5056692;28;20459;-70
2022/12/19 00:25:24;;;;;;;25.10;15.17;;;-2.80;99.90;;;;;;5056313;28;20456;-70
2022/12/19 00:27:51;;;;;;;25.83;15.20;;;-2.80;99.90;;;;;;5056114;28;20465;-70
2022/12/19 00:30:18;;;;;;;27.93;15.57;;;-2.80;99.90;;;;;;5055746;28;20943;-69
2022/12/19 00:32:45;;;;;;;31.67;15.50;;;-2.80;99.90;;;;;;5055641;28;20455;-70
2022/12/19 00:35:12;;;;;;;24.60;14.77;;;-2.80;99.90;;;;;;5056007;28;20558;-70
2022/12/19 00:37:40;;;;;;;26.97;15.37;;;-2.80;99.90;;;;;;5055522;28;20917;-70
2022/12/19 00:40:08;;;;;;;26.90;15.93;;;-2.80;99.90;;;;;;5055846;28;20451;-70
2022/12/19 00:42:35;;;;;;;30.97;15.67;;;-2.70;99.90;;;;;;5055797;28;20791;-70
2022/12/19 00:45:01;;;;;;;23.17;15.17;;;-2.70;99.90;;;;;;5055650;28;20466;-69
2022/12/19 00:47:28;;;;;;;24.13;14.03;;;-2.80;99.90;;;;;;5055214;28;20564;-69
2022/12/19 00:49:55;;;;;;;32.33;18.37;;;-2.70;99.90;;;;;;5055823;28;20455;-70
2022/12/19 00:52:22;;;;;;;27.33;15.00;;;-2.70;99.90;;;;;;5055558;28;20542;-70
2022/12/19 00:54:50;;;;;;;25.40;14.90;;;-2.70;99.90;;;;;;5055131;28;20465;-69
2022/12/19 00:57:17;;;;;;;27.57;16.03;;;-2.70;99.90;;;;;;5054929;28;20574;-69
2022/12/19 00:59:44;;;;;;;29.57;16.80;;;-2.70;99.90;;;;;;5055560;28;20455;-69
2022/12/19 01:02:10;;;;;;;25.53;14.40;;;-2.70;99.90;;;;;;5055375;28;20876;-69
2022/12/19 01:04:37;;;;;;;26.53;13.43;;;-2.70;99.90;;;;;;5055411;28;20455;-69
2022/12/19 01:07:06;;;;;;;27.47;15.20;;;-2.70;99.90;;;;;;5055250;28;20451;-70
2022/12/19 01:09:35;;;;;;;24.33;14.57;;;-2.60;99.90;;;;;;5055419;28;20550;-70
2022/12/19 01:14:49;;;;;;;26.77;14.87;;;-2.60;99.90;;;;;;5055767;28;20849;-69
2022/12/19 01:17:16;;;;;;;27.83;16.17;;;-2.60;99.90;;;;;;5055249;28;20740;-70
2022/12/19 01:19:43;;;;;;;29.33;16.20;;;-2.60;99.90;;;;;;5055451;28;20491;-69
2022/12/19 01:22:10;;;;;;;27.90;14.80;;;-2.60;99.90;;;;;;5054999;28;20916;-70
2022/12/19 01:24:37;;;;;;;25.07;15.70;;;-2.60;99.90;;;;;;5055366;28;20558;-70
2022/12/19 01:27:05;;;;;;;25.00;14.90;;;-2.70;99.90;;;;;;5054919;28;20923;-70
2022/12/19 01:29:32;;;;;;;26.47;14.30;;;-2.70;99.90;;;;;;5055174;28;20465;-69
2022/12/19 01:31:59;;;;;;;23.13;14.47;;;-2.70;99.90;;;;;;5055282;28;20783;-69
2022/12/19 01:34:26;;;;;;;23.27;13.07;;;-2.70;99.90;;;;;;5055041;28;20466;-69
2022/12/19 01:36:52;;;;;;;27.67;15.70;;;-2.70;99.90;;;;;;5055115;28;20479;-69
2022/12/19 01:39:19;;;;;;;25.67;14.73;;;-2.60;99.90;;;;;;5055273;28;20465;-69
2022/12/19 01:41:46;;;;;;;24.23;13.30;;;-2.70;99.90;;;;;;5054977;28;20465;-69
2022/12/19 01:44:14;;;;;;;27.43;14.23;;;-2.60;99.90;;;;;;5055697;28;20774;-70
2022/12/19 01:46:45;;;;;;;23.83;13.60;;;-2.60;99.90;;;;;;5054862;28;20483;-69
2022/12/19 01:49:16;;;;;;;24.20;13.47;;;-2.50;99.90;;;;;;5054992;28;20465;-69
2022/12/19 01:51:46;;;;;;;27.80;15.07;;;-2.60;99.90;;;;;;5054783;28;20444;-70
2022/12/19 01:54:19;;;;;;;29.37;15.23;;;-2.60;99.90;;;;;;5055067;28;20459;-69
2022/12/19 01:56:49;;;;;;;25.30;15.03;;;-2.60;99.90;;;;;;5054911;28;20566;-69
2022/12/19 01:59:22;;;;;;;27.43;14.00;;;-2.60;99.90;;;;;;5054558;28;20467;-69
2022/12/19 02:01:53;;;;;;;23.43;14.77;;;-2.60;99.90;;;;;;5056117;28;20443;-69
2022/12/19 02:04:21;;;;;;;31.63;15.53;;;-2.60;99.90;;;;;;5055416;28;20471;-69
2022/12/19 02:06:49;;;;;;;26.70;14.40;;;-2.60;99.90;;;;;;5055279;28;20451;-69
2022/12/19 02:09:16;;;;;;;28.20;15.10;;;-2.50;99.90;;;;;;5058635;28;20850;-70
2022/12/19 02:11:43;;;;;;;23.20;14.03;;;-2.50;99.90;;;;;;5059677;28;20538;-70
2022/12/19 02:14:10;;;;;;;29.63;14.50;;;-2.50;99.90;;;;;;5059782;28;20791;-70
2022/12/19 02:16:48;;;;;;;25.50;14.17;;;-2.50;99.90;;;;;;5059375;28;20575;-69
2022/12/19 02:19:39;;;;;;;27.77;14.40;;;-2.50;99.90;;;;;;5059056;28;20542;-69
2022/12/19 02:22:10;;;;;;;26.23;14.33;;;-2.50;99.90;;;;;;5015748;28;20451;-72
2022/12/19 02:25:11;;;;;;;22.20;13.70;;;-2.50;99.90;;;;;;5059193;28;20771;-69
2022/12/19 02:27:54;;;;;;;28.03;14.50;;;-2.50;99.90;;;;;;5058366;28;20493;-69
2022/12/19 02:30:47;;;;;;;36.33;16.47;;;-2.60;99.90;;;;;;5058414;28;20467;-70
2022/12/19 02:33:21;;;;;;;26.57;14.30;;;-2.50;99.90;;;;;;5058143;28;20449;-69
2022/12/19 02:35:56;;;;;;;25.00;14.00;;;-2.50;99.90;;;;;;5058201;28;20443;-69
2022/12/19 02:38:30;;;;;;;26.77;14.50;;;-2.50;99.90;;;;;;5058463;28;20457;-69
2022/12/19 02:41:05;;;;;;;28.47;17.63;;;-2.50;99.90;;;;;;5058678;28;20529;-69
2022/12/19 02:43:39;;;;;;;30.67;16.40;;;-2.50;99.90;;;;;;5059691;28;20453;-69
2022/12/19 02:46:09;;;;;;;32.70;15.83;;;-2.50;99.90;;;;;;5058241;28;20482;-69
2022/12/19 02:48:37;;;;;;;27.60;15.87;;;-2.50;99.90;;;;;;5058274;28;20454;-69
2022/12/19 02:51:05;;;;;;;26.53;15.87;;;-2.60;99.90;;;;;;5057821;28;20448;-68
2022/12/19 02:53:33;;;;;;;30.03;15.50;;;-2.60;99.90;;;;;;5058017;28;20841;-69
2022/12/19 02:56:35;;;;;;;28.27;15.63;;;-2.60;99.90;;;;;;5057759;28;20478;-68
2022/12/19 02:59:24;;;;;;;30.00;16.13;;;-2.50;99.90;;;;;;5052397;28;20497;-69
2022/12/19 03:01:57;;;;;;;28.07;15.30;;;-2.50;99.90;;;;;;5047276;28;20928;-69
2022/12/19 03:04:33;;;;;;;32.23;16.37;;;-2.50;99.90;;;;;;5057684;28;20457;-68
2022/12/19 03:07:06;;;;;;;29.60;17.47;;;-2.50;99.90;;;;;;5057697;28;20521;-68
2022/12/19 03:09:40;;;;;;;29.57;17.40;;;-2.50;99.90;;;;;;5057705;28;20439;-70
2022/12/19 03:12:13;;;;;;;29.47;17.00;;;-2.50;99.90;;;;;;5057728;28;20435;-68
2022/12/19 03:14:42;;;;;;;32.20;17.10;;;-2.50;99.90;;;;;;5058002;28;20470;-69
2022/12/19 03:17:10;;;;;;;32.40;15.80;;;-2.50;99.90;;;;;;5057684;28;20493;-69
2022/12/19 03:19:40;;;;;;;30.50;16.30;;;-2.50;99.90;;;;;;5057379;28;20987;-68
2022/12/19 03:22:07;;;;;;;24.17;15.40;;;-2.50;99.90;;;;;;5057702;28;20477;-69
2022/12/19 03:24:34;;;;;;;33.90;18.30;;;-2.50;99.90;;;;;;5057421;28;20465;-69
2022/12/19 03:27:04;;;;;;;30.57;16.23;;;-2.50;99.90;;;;;;5057820;28;20448;-68
2022/12/19 03:29:36;;;;;;;25.07;16.10;;;-2.50;99.90;;;;;;5057273;28;20538;-67
2022/12/19 03:32:07;;;;;;;32.90;15.87;;;-2.40;99.90;;;;;;5058149;28;20965;-68
2022/12/19 03:34:40;;;;;;;32.70;17.67;;;-2.50;99.90;;;;;;5057580;28;20891;-70
2022/12/19 03:37:12;;;;;;;32.57;15.80;;;-2.50;99.90;;;;;;5057500;28;20465;-69
2022/12/19 03:39:40;;;;;;;34.20;17.47;;;-2.40;99.90;;;;;;5058391;28;20443;-69
2022/12/19 03:44:55;;;;;;;30.77;16.97;;;-2.50;99.90;;;;;;5057176;28;20756;-68
2022/12/19 03:47:26;;;;;;;29.77;17.40;;;-2.50;99.90;;;;;;5056529;28;20486;-70
2022/12/19 03:49:55;;;;;;;30.03;17.67;;;-2.50;99.90;;;;;;5056695;28;20439;-70
2022/12/19 03:52:27;;;;;;;31.13;18.40;;;-2.50;99.90;;;;;;5056907;28;20795;-68
2022/12/19 03:55:03;;;;;;;31.20;16.73;;;-2.50;99.90;;;;;;5056464;28;20446;-68
2022/12/19 03:57:34;;;;;;;31.73;18.47;;;-2.50;99.90;;;;;;5056773;28;20467;-69
2022/12/19 04:00:05;;;;;;;31.13;17.40;;;-2.50;99.90;;;;;;5057680;28;20458;-69
2022/12/19 04:02:36;;;;;;;32.53;18.27;;;-2.50;99.90;;;;;;5056428;28;20459;-69
2022/12/19 04:05:11;;;;;;;34.03;17.47;;;-2.50;99.90;;;;;;5057044;28;20764;-68
2022/12/19 04:07:39;;;;;;;31.33;17.50;;;-2.50;99.90;;;;;;5056487;28;20445;-69
2022/12/19 04:10:10;;;;;;;31.70;18.60;;;-2.50;99.90;;;;;;5056358;28;20474;-68
2022/12/19 04:12:40;;;;;;;29.70;17.93;;;-2.40;99.90;;;;;;5056618;28;20455;-69
2022/12/19 04:15:09;;;;;;;26.00;15.00;;;-2.40;99.90;;;;;;5056521;28;20458;-69
2022/12/19 04:17:40;;;;;;;30.03;18.17;;;-2.40;99.90;;;;;;5055964;28;20494;-69
2022/12/19 04:20:11;;;;;;;27.90;17.30;;;-2.30;99.90;;;;;;5056361;28;20454;-68
2022/12/19 04:22:41;;;;;;;32.47;17.73;;;-2.30;99.90;;;;;;5055936;28;20546;-69
2022/12/19 04:25:11;;;;;;;29.73;18.23;;;-2.30;99.90;;;;;;5056231;28;20485;-69
2022/12/19 04:27:41;;;;;;;29.57;16.70;;;-2.40;99.90;;;;;;5055840;28;20927;-68
2022/12/19 04:30:09;;;;;;;31.77;17.13;;;-2.40;99.90;;;;;;5055963;28;20550;-69
2022/12/19 04:32:37;;;;;;;30.17;18.87;;;-2.40;99.90;;;;;;5055494;28;20465;-69
2022/12/19 04:35:05;;;;;;;28.40;16.70;;;-2.30;99.90;;;;;;5055878;28;20451;-69
2022/12/19 04:37:33;;;;;;;30.17;17.77;;;-2.30;99.90;;;;;;5055910;28;20565;-69
2022/12/19 04:40:00;;;;;;;30.97;17.20;;;-2.30;99.90;;;;;;5056158;28;20455;-69
2022/12/19 04:42:27;;;;;;;30.77;17.13;;;-2.30;99.90;;;;;;5056035;28;20546;-67
2022/12/19 04:44:53;;;;;;;34.50;17.47;;;-2.20;99.90;;;;;;5055905;28;20555;-68
2022/12/19 04:47:20;;;;;;;31.73;16.97;;;-2.20;99.90;;;;;;5055528;28;20569;-69
2022/12/19 04:49:47;;;;;;;30.90;18.40;;;-2.20;99.90;;;;;;5056054;28;20458;-68
2022/12/19 04:52:14;;;;;;;26.90;15.93;;;-2.30;99.90;;;;;;5055710;28;20456;-68
2022/12/19 04:54:42;;;;;;;30.63;17.67;;;-2.30;99.90;;;;;;5055873;28;20455;-68
2022/12/19 04:57:09;;;;;;;28.37;17.13;;;-2.30;99.90;;;;;;5055430;28;20482;-70
2022/12/19 04:59:36;;;;;;;31.80;17.37;;;-2.30;99.90;;;;;;5055864;28;20558;-68
2022/12/19 05:02:03;;;;;;;29.60;17.60;;;-2.40;99.90;;;;;;5055518;28;20468;-68
2022/12/19 05:04:30;;;;;;;27.20;16.77;;;-2.40;99.90;;;;;;5055198;28;20555;-68
2022/12/19 05:06:57;;;;;;;31.70;17.47;;;-2.40;99.90;;;;;;5055622;28;20451;-68
2022/12/19 05:09:23;;;;;;;30.10;17.47;;;-2.40;99.90;;;;;;5055618;28;20463;-68
2022/12/19 05:11:52;;;;;;;33.57;17.13;;;-2.40;99.90;;;;;;5055576;28;20455;-68
2022/12/19 05:14:19;;;;;;;36.57;17.60;;;-2.40;99.90;;;;;;5055568;28;20796;-67
2022/12/19 05:16:45;;;;;;;30.97;17.00;;;-2.50;99.90;;;;;;5055218;28;20489;-68
2022/12/19 05:19:12;;;;;;;32.50;17.10;;;-2.50;99.90;;;;;;5056148;28;20465;-68
2022/12/19 05:21:41;;;;;;;30.60;18.10;;;-2.40;99.90;;;;;;5055490;28;20485;-68
2022/12/19 05:24:08;;;;;;;38.73;17.40;;;-2.50;99.90;;;;;;5055325;28;20459;-68
2022/12/19 05:26:35;;;;;;;33.70;17.47;;;-2.50;99.90;;;;;;5055020;28;20459;-68
2022/12/19 05:29:03;;;;;;;38.17;18.10;;;-2.50;99.90;;;;;;5054871;28;20459;-69
2022/12/19 05:31:30;;;;;;;32.70;18.23;;;-2.50;99.90;;;;;;5055018;28;20462;-67
2022/12/19 05:33:57;;;;;;;30.77;18.37;;;-2.50;99.90;;;;;;5055282;28;20491;-68
2022/12/19 05:36:23;;;;;;;32.97;18.60;;;-2.50;99.90;;;;;;5054421;28;20474;-69
2022/12/19 05:38:50;;;;;;;36.73;17.63;;;-2.40;99.90;;;;;;5054893;28;20489;-69
2022/12/19 05:41:19;;;;;;;31.47;16.90;;;-2.40;99.90;;;;;;5054478;28;20920;-70
2022/12/19 05:43:50;;;;;;;40.23;18.40;;;-2.40;99.90;;;;;;5054554;28;20534;-69
2022/12/19 05:46:19;;;;;;;25.00;15.67;;;-2.30;99.90;;;;;;5054524;28;20979;-68
2022/12/19 05:48:46;;;;;;;29.00;16.87;;;-2.40;99.90;;;;;;5054603;28;20451;-68
2022/12/19 05:51:13;;;;;;;30.50;16.97;;;-2.30;99.90;;;;;;5054775;28;20460;-68
2022/12/19 05:53:41;;;;;;;29.13;16.83;;;-2.30;99.90;;;;;;5054903;28;20455;-68
2022/12/19 05:56:10;;;;;;;32.97;16.67;;;-2.40;99.90;;;;;;5054501;28;20852;-69
2022/12/19 05:58:38;;;;;;;28.50;16.53;;;-2.30;99.90;;;;;;5054560;28;20487;-69
2022/12/19 06:01:06;;;;;;;30.93;17.27;;;-2.30;99.90;;;;;;5054262;28;20454;-68
2022/12/19 06:03:35;;;;;;;27.10;15.33;;;-2.30;99.90;;;;;;5054807;28;20497;-68
2022/12/19 06:06:03;;;;;;;31.33;16.97;;;-2.30;99.90;;;;;;5054717;28;20459;-67
2022/12/19 06:08:31;;;;;;;29.50;17.17;;;-2.20;99.90;;;;;;5055172;28;20459;-69
2022/12/19 06:10:59;;;;;;;29.70;16.27;;;-2.30;99.90;;;;;;5054669;28;20459;-68
2022/12/19 06:13:26;;;;;;;32.60;17.23;;;-2.30;99.90;;;;;;5054555;28;20455;-68
2022/12/19 06:15:58;;;;;;;29.37;16.13;;;-2.30;99.90;;;;;;5054797;28;20929;-68
2022/12/19 06:18:25;;;;;;;30.40;16.77;;;-2.40;99.90;;;;;;5055161;28;20491;-67
2022/12/19 06:20:58;;;;;;;31.43;16.80;;;-2.30;99.90;;;;;;5054389;28;20456;-67
2022/12/19 06:23:24;;;;;;;33.70;18.23;;;-2.30;99.90;;;;;;5054760;28;20843;-69
2022/12/19 06:25:51;;;;;;;27.10;15.67;;;-2.30;99.90;;;;;;5054336;28;20455;-70
2022/12/19 06:28:18;;;;;;;30.63;17.03;;;-2.20;99.90;;;;;;5054288;28;20788;-68
2022/12/19 06:30:45;;;;;;;28.53;16.20;;;-2.30;99.90;;;;;;5054269;28;20459;-69
2022/12/19 06:33:12;;;;;;;24.20;15.47;;;-2.30;99.90;;;;;;5054087;28;20542;-69
2022/12/19 06:35:39;;;;;;;30.23;17.47;;;-2.20;99.90;;;;;;5056979;28;20845;-68
2022/12/19 06:38:08;;;;;;;30.13;16.43;;;-2.20;99.90;;;;;;5054406;28;20479;-68
2022/12/19 06:43:19;;;;;;;32.90;17.67;;;-2.10;99.90;;;;;;5054373;28;20748;-67
2022/12/19 06:45:45;;;;;;;30.63;16.97;;;-2.10;99.90;;;;;;5054199;28;20485;-68
2022/12/19 06:48:12;;;;;;;26.10;14.90;;;-2.10;99.90;;;;;;5054063;28;20451;-69
2022/12/19 06:50:39;;;;;;;28.50;17.17;;;-2.10;99.90;;;;;;5054095;28;20461;-68
2022/12/19 06:53:07;;;;;;;27.20;15.50;;;-2.10;99.90;;;;;;5053920;28;20837;-68
2022/12/19 06:55:36;;;;;;;31.63;16.70;;;-2.00;99.90;;;;;;5057901;28;20866;-69
2022/12/19 06:58:03;;;;;;;34.73;16.33;;;-2.00;99.90;;;;;;5058165;28;20573;-68
2022/12/19 07:00:30;;;;;;;31.73;15.63;;;-1.90;99.90;;;;;;5058420;28;20513;-68
2022/12/19 07:02:59;;;;;;;26.17;16.47;;;-1.90;99.90;;;;;;5060463;28;20467;-68
2022/12/19 07:05:26;;;;;;;32.87;17.10;;;-1.80;99.90;;;;;;5061242;28;20841;-68
2022/12/19 07:07:53;;;;;;;25.57;16.17;;;-1.80;99.90;;;;;;5064549;28;20447;-69
2022/12/19 07:10:21;;;;;;;29.37;16.17;;;-1.90;99.90;;;;;;5059283;28;20455;-69
2022/12/19 07:12:48;;;;;;;27.37;16.73;;;-1.90;99.90;;;;;;5060995;28;20455;-69
2022/12/19 07:15:15;;;;;;;32.00;16.80;;;-1.90;99.90;;;;;;5060068;28;20467;-69
2022/12/19 07:17:42;;;;;;;29.20;16.43;;;-1.80;99.90;;;;;;5061087;28;20474;-69
2022/12/19 07:20:11;;;;;;;31.53;15.83;;;-1.80;99.90;;;;;;5061396;28;20467;-69
2022/12/19 07:22:38;;;;;;;31.23;15.70;;;-1.80;99.90;;;;;;5065336;28;20455;-68
2022/12/19 07:25:06;;;;;;;28.30;15.53;;;-1.80;99.90;;;;;;5061487;28;20455;-68
2022/12/19 07:27:35;;;;;;;24.73;14.50;;;-1.80;99.90;;;;;;5059925;28;20461;-69
2022/12/19 07:30:02;;;;;;;29.43;16.03;;;-1.80;99.90;;;;;;5057612;28;20455;-69
2022/12/19 07:32:29;;;;;;;31.80;17.80;;;-1.70;99.90;;;;;;5057945;28;20912;-68
2022/12/19 07:34:56;;;;;;;28.07;16.03;;;-1.70;99.90;;;;;;5057705;28;20490;-68
2022/12/19 07:37:22;;;;;;;31.43;16.53;;;-1.60;99.90;;;;;;5056943;28;20451;-68
2022/12/19 07:39:51;;;;;;;25.90;15.40;;;-1.60;99.90;;;;;;5057007;28;20545;-68
2022/12/19 07:42:18;;;;;;;27.70;15.73;;;-1.60;99.90;;;;;;5057293;28;20497;-67
2022/12/19 07:44:46;;;;;;;30.97;15.80;;;-1.50;99.90;;;;;;5056945;28;20550;-69
2022/12/19 07:47:13;;;;;;;28.47;16.70;;;-1.50;99.90;;;;;;5056762;28;20478;-68
2022/12/19 07:49:40;;;;;;;30.63;17.50;;;-1.40;99.90;;;;;;5057106;28;20542;-68
2022/12/19 07:52:07;;;;;;;26.73;15.33;;;-1.40;99.90;;;;;;5057149;28;20521;-67
2022/12/19 07:54:34;;;;;;;28.30;15.73;;;-1.30;99.90;;;;;;5056780;28;20469;-68
2022/12/19 07:57:01;;;;;;;29.90;17.37;;;-1.30;99.90;;;;;;5056812;28;20787;-69
2022/12/19 07:59:28;;;;;;;28.60;16.27;;;-1.30;99.90;;;;;;5056655;28;20483;-68
2022/12/19 08:01:56;;;;;;;30.47;15.90;;;-1.30;99.90;;;;;;5056918;28;20554;-67
2022/12/19 08:04:23;;;;;;;31.23;16.70;;;-1.30;99.90;;;;;;5056845;28;20506;-67
2022/12/19 08:06:50;;;;;;;28.97;15.40;;;-1.20;99.90;;;;;;5056103;28;20459;-68
2022/12/19 08:09:17;;;;;;;25.20;14.93;;;-1.10;99.90;;;;;;5056659;28;20920;-69
2022/12/19 08:11:44;;;;;;;33.97;14.80;;;-1.10;99.90;;;;;;5056615;28;20455;-68
2022/12/19 08:14:10;;;;;;;27.83;14.57;;;-1.10;99.90;;;;;;5056992;28;20456;-68
2022/12/19 08:16:37;;;;;;;28.83;16.03;;;-1.10;99.90;;;;;;5056795;28;20455;-69
2022/12/19 08:19:05;;;;;;;25.67;15.00;;;-1.20;99.90;;;;;;5056286;28;20479;-68
2022/12/19 08:21:32;;;;;;;29.53;15.50;;;-1.10;99.90;;;;;;5059994;28;20465;-66
2022/12/19 08:24:00;;;;;;;26.17;15.90;;;-1.00;99.90;;;;;;5056315;28;20455;-68
2022/12/19 08:26:27;;;;;;;26.90;15.50;;;-1.00;99.90;;;;;;5056007;28;20491;-67
2022/12/19 08:28:55;;;;;;;29.60;15.47;;;-0.90;99.90;;;;;;5056073;28;20530;-66
2022/12/19 08:31:25;;;;;;;28.73;14.40;;;-1.00;99.90;;;;;;5056745;28;20451;-68
2022/12/19 08:33:52;;;;;;;27.87;16.40;;;-0.90;99.90;;;;;;5055969;28;20448;-69
2022/12/19 08:36:21;;;;;;;32.50;15.57;;;-0.90;99.90;;;;;;5056015;28;20465;-68
2022/12/19 08:38:48;;;;;;;27.77;15.53;;;-0.80;99.90;;;;;;5056001;28;20485;-69
2022/12/19 08:41:16;;;;;;;26.87;16.03;;;-0.80;99.90;;;;;;5055912;28;20611;-67
2022/12/19 08:43:47;;;;;;;29.50;16.30;;;-0.80;99.90;;;;;;5056096;28;20997;-67
2022/12/19 08:46:16;;;;;;;28.37;14.97;;;-0.80;99.90;;;;;;5055553;28;20479;-66
2022/12/19 08:48:44;;;;;;;28.60;15.27;;;-0.80;99.90;;;;;;5055979;28;20451;-67
2022/12/19 08:51:12;;;;;;;28.33;15.17;;;-0.70;99.90;;;;;;5056028;28;20546;-67
2022/12/19 08:53:43;;;;;;;28.80;16.40;;;-0.60;99.90;;;;;;5056036;28;20987;-66
2022/12/19 08:56:13;;;;;;;28.80;14.50;;;-0.70;99.90;;;;;;5056404;28;20496;-67
2022/12/19 08:58:40;;;;;;;31.27;15.83;;;-0.60;99.90;;;;;;5056127;28;20931;-67
2022/12/19 09:01:10;;;;;;;25.70;16.00;;;-0.50;99.90;;;;;;5056137;28;20966;-66
2022/12/19 09:03:37;;;;;;;29.77;16.53;;;-0.50;99.90;;;;;;5056757;28;20844;-67
2022/12/19 09:06:06;;;;;;;26.87;15.13;;;-0.50;99.90;;;;;;5055857;28;20467;-67
2022/12/19 09:08:34;;;;;;;28.00;15.57;;;-0.50;99.90;;;;;;5056044;28;20461;-68
2022/12/19 09:11:05;;;;;;;30.63;15.90;;;-0.40;99.90;;;;;;5056315;28;20464;-67
2022/12/19 09:13:33;;;;;;;27.73;14.60;;;-0.30;99.90;;;;;;5057118;28;20501;-67
2022/12/19 09:16:01;;;;;;;25.03;15.53;;;-0.30;99.90;;;;;;5057893;28;20459;-66
2022/12/19 09:18:28;;;;;;;27.13;14.50;;;-0.30;99.90;;;;;;5055210;28;20509;-67
2022/12/19 09:20:55;;;;;;;26.70;15.60;;;-0.20;99.90;;;;;;5055297;28;20562;-66
2022/12/19 09:23:22;;;;;;;27.07;15.67;;;-0.10;99.90;;;;;;5055340;28;20466;-67
2022/12/19 09:25:50;;;;;;;26.20;14.43;;;-0.10;99.90;;;;;;5055276;28;20848;-67
2022/12/19 09:28:18;;;;;;;26.03;15.63;;;0.00;99.90;;;;;;5055193;28;20924;-67
2022/12/19 09:30:45;;;;;;;27.57;15.70;;;0.00;99.90;;;;;;5055122;28;20797;-67
2022/12/19 09:33:12;;;;;;;27.77;16.20;;;0.00;99.90;;;;;;5054815;28;20469;-68
2022/12/19 09:35:39;;;;;;;29.23;16.13;;;0.10;99.90;;;;;;5054802;28;20455;-67
2022/12/19 09:38:06;;;;;;;27.53;15.67;;;0.10;99.90;;;;;;5054829;28;20562;-67
2022/12/19 09:40:48;;;;;;;30.60;15.30;;;0.10;99.90;;;;;;5055212;28;20866;-67
2022/12/19 09:43:29;;;;;;;32.13;16.20;;;0.10;99.90;;;;;;5055152;28;20447;-68
2022/12/19 09:46:03;;;;;;;26.23;15.07;;;0.20;99.90;;;;;;5054810;28;20966;-67
2022/12/19 09:48:31;;;;;;;26.30;15.10;;;0.20;99.90;;;;;;5055001;28;20534;-66
2022/12/19 09:51:03;;;;;;;31.57;15.40;;;0.30;99.90;;;;;;5054898;28;20915;-67
2022/12/19 09:53:38;;;;;;;31.90;14.30;;;0.30;99.90;;;;;;5054826;28;20927;-66
2022/12/19 09:56:10;;;;;;;32.20;15.10;;;0.30;99.90;;;;;;5055152;28;20453;-67
2022/12/19 09:58:44;;;;;;;30.57;14.23;;;0.40;99.90;;;;;;5055171;28;20467;-66
2022/12/19 10:01:19;;;;;;;32.20;16.40;;;0.40;99.90;;;;;;5054957;28;20449;-66
2022/12/19 10:03:50;;;;;;;26.00;15.20;;;0.50;99.90;;;;;;5054805;28;20449;-67
2022/12/19 10:06:19;;;;;;;23.20;14.13;;;0.50;99.90;;;;;;5055242;28;20443;-66
2022/12/19 10:08:47;;;;;;;25.40;14.47;;;0.60;99.90;;;;;;5055584;28;20457;-66
2022/12/19 10:11:32;;;;;;;28.63;15.83;;;0.60;99.90;;;;;;5054887;28;20971;-66
2022/12/19 10:14:20;;;;;;;26.40;15.40;;;0.70;99.90;;;;;;5054711;28;20530;-67
2022/12/19 10:17:02;;;;;;;23.50;14.57;;;0.70;99.90;;;;;;5054507;28;20486;-67
2022/12/19 10:19:39;;;;;;;27.73;16.00;;;0.80;99.90;;;;;;5054664;28;20797;-67
2022/12/19 10:22:16;;;;;;;28.60;14.77;;;0.90;99.90;;;;;;5054888;28;20443;-67
2022/12/19 10:25:02;;;;;;;27.30;14.93;;;0.90;99.90;;;;;;5054656;28;20759;-66
2022/12/19 10:27:33;;;;;;;28.30;15.17;;;1.00;99.90;;;;;;5054823;28;20792;-66
2022/12/19 10:30:13;;;;;;;25.97;15.13;;;0.90;99.90;;;;;;5057437;28;20449;-67
2022/12/19 10:32:47;;;;;;;27.87;15.37;;;1.00;99.90;;;;;;5058721;28;20445;-66
2022/12/19 10:35:16;;;;;;;37.20;17.80;;;1.10;99.90;;;;;;5058863;28;20534;-66
2022/12/19 10:37:49;;;;;;;26.27;16.93;;;1.10;99.90;;;;;;5059625;28;20469;-66
2022/12/19 10:40:24;;;;;;;27.20;14.63;;;1.20;99.90;;;;;;5060779;28;20477;-68
2022/12/19 10:42:55;;;;;;;28.10;15.37;;;1.20;99.90;;;;;;5059783;28;20447;-67
2022/12/19 10:45:24;;;;;;;30.33;16.53;;;1.30;99.90;;;;;;5059889;28;20515;-67
2022/12/19 10:47:56;;;;;;;28.83;15.20;;;1.30;99.90;;;;;;5059885;28;20539;-66
2022/12/19 10:50:25;;;;;;;32.30;15.73;;;1.50;99.90;;;;;;5059955;28;20534;-67
2022/12/19 10:52:55;;;;;;;24.97;14.97;;;1.60;99.90;;;;;;5059575;28;20455;-67
2022/12/19 10:55:33;;;;;;;24.60;14.37;;;1.70;99.90;;;;;;5059253;28;20489;-67
2022/12/19 10:58:10;;;;;;;31.30;15.90;;;1.80;99.90;;;;;;5059544;28;20439;-67
2022/12/19 11:00:46;;;;;;;25.93;15.30;;;1.80;99.90;;;;;;5058185;28;20470;-66
2022/12/19 11:03:16;;;;;;;25.37;14.60;;;1.90;99.90;;;;;;5058174;28;20439;-65
2022/12/19 11:05:49;;;;;;;27.37;15.77;;;1.90;99.90;;;;;;5058769;28;20462;-66
2022/12/19 11:08:19;;;;;;;24.97;15.37;;;2.00;99.90;;;;;;5058726;28;20446;-67
2022/12/19 11:10:48;;;;;;;26.30;14.57;;;1.90;99.90;;;;;;5047294;28;20470;-67
2022/12/19 11:13:21;;;;;;;29.83;16.43;;;1.90;99.90;;;;;;5037925;28;20522;-67
2022/12/19 11:15:52;;;;;;;27.13;13.83;;;1.80;99.90;;;;;;5037494;28;20436;-65
2022/12/19 11:18:19;;;;;;;30.10;15.10;;;1.80;99.90;;;;;;5037730;28;20524;-67
2022/12/19 11:20:59;;;;;;;31.93;16.27;;;1.90;99.90;;;;;;5037645;28;20460;-67
2022/12/19 11:23:28;;;;;;;25.77;15.83;;;1.80;99.90;;;;;;5037640;28;20470;-67
2022/12/19 11:25:57;;;;;;;32.00;15.57;;;1.80;99.90;;;;;;5029816;28;20466;-68
2022/12/19 11:28:28;;;;;;;26.90;15.97;;;1.70;99.90;;;;;;5037038;28;20455;-68
2022/12/19 11:30:58;;;;;;;29.00;14.17;;;1.80;99.90;;;;;;5029492;28;20501;-67
2022/12/19 11:33:25;;;;;;;27.60;15.83;;;1.80;99.90;;;;;;5038175;28;20536;-65
2022/12/19 11:35:54;;;;;;;27.43;15.07;;;1.70;99.90;;;;;;5029108;28;20487;-68
2022/12/19 11:38:28;;;;;;;26.00;15.57;;;1.70;99.90;;;;;;5037322;28;20904;-70
2022/12/19 11:40:58;;;;;;;32.03;15.07;;;1.70;99.90;;;;;;5036560;28;20455;-67
2022/12/19 11:43:29;;;;;;;27.93;15.13;;;1.70;99.90;;;;;;5037045;28;20791;-67
2022/12/19 11:46:03;;;;;;;32.20;16.43;;;1.60;99.90;;;;;;5036896;28;20492;-68
2022/12/19 11:48:38;;;;;;;29.33;14.67;;;1.60;99.90;;;;;;5038124;28;20823;-68
2022/12/19 11:51:14;;;;;;;30.10;15.53;;;1.50;99.90;;;;;;5055977;28;20455;-67
2022/12/19 11:53:49;;;;;;;26.07;15.50;;;1.50;99.90;;;;;;5049538;28;20542;-68
2022/12/19 11:56:21;;;;;;;30.33;16.47;;;1.50;99.90;;;;;;5037047;28;20450;-68
2022/12/19 11:58:51;;;;;;;26.73;15.50;;;1.50;99.90;;;;;;5036516;28;20468;-68
2022/12/19 12:01:28;;;;;;;29.40;14.93;;;1.50;99.90;;;;;;5037205;28;20444;-68
2022/12/19 12:04:08;;;;;;;34.47;16.67;;;1.50;99.90;;;;;;5036807;28;20454;-68
2022/12/19 12:06:45;;;;;;;28.13;15.70;;;1.50;99.90;;;;;;5036882;28;20453;-67
2022/12/19 12:09:23;;;;;;;27.00;14.70;;;1.50;99.90;;;;;;5036695;28;20523;-68
2022/12/19 12:11:58;;;;;;;33.07;16.93;;;1.50;99.90;;;;;;5036507;28;20454;-68
2022/12/19 12:14:36;;;;;;;28.30;15.27;;;1.50;99.90;;;;;;5036678;28;20462;-67
2022/12/19 12:17:18;;;;;;;32.90;16.70;;;1.50;99.90;;;;;;5036565;28;20448;-69
2022/12/19 12:20:01;;;;;;;31.20;17.37;;;1.50;99.90;;;;;;5036064;28;20474;-69
2022/12/19 12:22:42;;;;;;;30.67;15.73;;;1.50;99.90;;;;;;5036569;28;20444;-68
2022/12/19 12:25:23;;;;;;;33.00;18.33;;;1.50;99.90;;;;;;5036124;28;20897;-66
2022/12/19 12:27:57;;;;;;;36.43;16.20;;;1.50;99.90;;;;;;5036253;28;20444;-68
2022/12/19 12:30:24;;;;;;;29.63;14.70;;;1.50;99.90;;;;;;5037820;28;20521;-68
2022/12/19 12:33:06;;;;;;;32.10;15.80;;;1.50;99.90;;;;;;5045006;28;20452;-68
2022/12/19 12:35:35;;;;;;;31.13;15.87;;;1.50;99.90;;;;;;5045767;28;20532;-68
2022/12/19 12:38:30;;;;;;;30.70;18.03;;;1.50;99.90;;;;;;5045499;28;20456;-69
2022/12/19 12:41:10;;;;;;;26.80;15.30;;;1.50;99.90;;;;;;5043486;28;20535;-68
2022/12/19 12:43:56;;;;;;;33.47;15.77;;;1.50;99.90;;;;;;5041768;28;20523;-69
2022/12/19 12:46:27;;;;;;;26.97;14.20;;;1.50;99.90;;;;;;5042645;28;20480;-69
2022/12/19 12:49:00;;;;;;;29.33;17.23;;;1.50;99.90;;;;;;5042341;28;20787;-69
2022/12/19 12:51:28;;;;;;;29.33;16.50;;;1.50;99.90;;;;;;5040860;28;20436;-69
2022/12/19 12:54:02;;;;;;;29.53;16.50;;;1.50;99.90;;;;;;5040462;28;20452;-68